Time;durP1;ratioP1;P1;durP2;ratioP2;P2;SDS_P1;SDS_P2;PMS_P1;PMS_P2;Temp;Humidity;BMP_temperature;BMP_pressure;BME280_temperature;BME280_humidity;BME280_pressure;Samples;Min_cycle;Max_cycle;Signal;HPM_P1;HPM_P2
2022/06/13 00:01:16;;;;;;;3.42;1.30;;;14.40;83.30;;;;;;5067585;28;20024;-60
2022/06/13 00:03:42;;;;;;;3.17;1.23;;;14.30;83.60;;;;;;5066777;28;20112;-60
2022/06/13 00:06:08;;;;;;;3.65;1.02;;;14.30;83.90;;;;;;5066969;28;20103;-60
2022/06/13 00:08:34;;;;;;;3.33;1.52;;;14.30;84.30;;;;;;5064431;28;20048;-60
2022/06/13 00:10:59;;;;;;;3.85;1.40;;;14.20;84.60;;;;;;5062981;28;20048;-60
2022/06/13 00:13:25;;;;;;;3.92;1.60;;;14.20;85.00;;;;;;5073627;28;20060;-59
2022/06/13 00:15:50;;;;;;;4.35;1.77;;;14.20;85.20;;;;;;5076649;28;20050;-60
2022/06/13 00:18:16;;;;;;;5.00;1.83;;;14.10;85.30;;;;;;5064720;28;20052;-60
2022/06/13 00:20:41;;;;;;;4.30;1.75;;;14.10;85.50;;;;;;5065501;28;20074;-60
2022/06/13 00:23:07;;;;;;;4.53;1.95;;;14.00;85.60;;;;;;5066437;28;20032;-60
2022/06/13 00:25:33;;;;;;;4.72;2.15;;;14.00;85.80;;;;;;5065352;28;20028;-60
2022/06/13 00:27:58;;;;;;;4.72;2.42;;;14.00;86.00;;;;;;5068316;28;20048;-60
2022/06/13 00:30:24;;;;;;;4.28;2.05;;;14.00;86.30;;;;;;5070693;28;20032;-60
2022/06/13 00:32:50;;;;;;;6.65;2.50;;;14.00;86.60;;;;;;5068552;28;20098;-60
2022/06/13 00:35:16;;;;;;;3.80;2.05;;;14.00;86.80;;;;;;5069701;28;20067;-60
2022/06/13 00:37:42;;;;;;;3.00;1.67;;;14.00;87.00;;;;;;5070824;28;20165;-59
2022/06/13 00:40:08;;;;;;;4.90;1.80;;;14.00;87.20;;;;;;5070463;28;20468;-60
2022/06/13 00:42:34;;;;;;;4.28;2.55;;;13.90;87.50;;;;;;5069874;28;20028;-59
2022/06/13 00:45:02;;;;;;;3.70;1.75;;;13.90;87.80;;;;;;5067134;28;20391;-60
2022/06/13 00:47:28;;;;;;;3.30;1.60;;;13.90;88.20;;;;;;5070291;28;20449;-59
2022/06/13 00:49:54;;;;;;;3.38;1.60;;;13.80;88.40;;;;;;5069329;28;20071;-59
2022/06/13 00:52:27;;;;;;;9.25;4.05;;;13.80;88.80;;;;;;5069665;28;20107;-59
2022/06/13 00:54:54;;;;;;;9.68;5.03;;;13.60;90.10;;;;;;5068707;28;20063;-59
2022/06/13 00:57:23;;;;;;;11.93;5.43;;;13.40;91.40;;;;;;5070654;28;20480;-60
2022/06/13 00:59:52;;;;;;;10.00;5.30;;;13.20;92.80;;;;;;5070760;28;20068;-59
2022/06/13 01:02:18;;;;;;;10.63;4.63;;;13.10;94.00;;;;;;5071024;28;20048;-60
2022/06/13 01:04:46;;;;;;;6.22;4.00;;;13.00;94.70;;;;;;5069343;28;20047;-59
2022/06/13 01:07:12;;;;;;;7.82;3.40;;;13.00;94.90;;;;;;5069317;28;20082;-60
2022/06/13 01:12:23;;;;;;;9.60;3.78;;;13.20;94.80;;;;;;5064489;28;20160;-60
2022/06/13 01:14:51;;;;;;;7.50;3.55;;;13.20;94.90;;;;;;5070120;28;20047;-59
2022/06/13 01:17:26;;;;;;;6.88;3.58;;;13.30;94.90;;;;;;5066841;28;20051;-59
2022/06/13 01:20:17;;;;;;;6.30;3.65;;;13.40;94.90;;;;;;5068657;28;20059;-59
2022/06/13 01:23:26;;;;;;;5.53;2.80;;;13.50;94.80;;;;;;5068526;28;20073;-59
2022/06/13 01:26:17;;;;;;;7.15;2.78;;;13.50;94.60;;;;;;5069056;28;20384;-59
2022/06/13 01:29:07;;;;;;;4.40;2.45;;;13.60;94.60;;;;;;5065524;28;20037;-59
2022/06/13 01:32:03;;;;;;;4.72;2.20;;;13.60;94.50;;;;;;5068009;28;20040;-60
2022/06/13 01:34:48;;;;;;;6.63;2.97;;;13.70;94.40;;;;;;5066211;28;20035;-59
2022/06/13 01:37:29;;;;;;;6.93;3.83;;;13.70;94.40;;;;;;5067331;28;20064;-59
2022/06/13 01:40:16;;;;;;;9.15;3.85;;;13.70;94.50;;;;;;5064887;28;20021;-59
2022/06/13 01:43:05;;;;;;;8.13;4.53;;;13.70;94.60;;;;;;5066531;28;20031;-59
2022/06/13 01:45:34;;;;;;;8.30;4.60;;;13.70;94.90;;;;;;5069634;28;20479;-59
2022/06/13 01:48:52;;;;;;;9.80;4.70;;;13.60;95.30;;;;;;5066884;28;20031;-59
2022/06/13 01:51:35;;;;;;;7.47;4.53;;;13.60;95.50;;;;;;5065195;28;20222;-59
2022/06/13 01:54:14;;;;;;;7.10;4.43;;;13.60;95.70;;;;;;5070444;28;20041;-59
2022/06/13 01:56:52;;;;;;;6.77;4.27;;;13.60;95.80;;;;;;5070302;28;20127;-59
2022/06/13 01:59:39;;;;;;;4.50;3.47;;;13.60;95.70;;;;;;5067815;28;20546;-59
2022/06/13 02:02:20;;;;;;;7.00;4.05;;;13.70;95.70;;;;;;5077531;28;20469;-59
2022/06/13 02:04:59;;;;;;;6.32;3.38;;;13.70;95.70;;;;;;5068547;28;20075;-59
2022/06/13 02:07:31;;;;;;;8.55;4.55;;;13.70;95.70;;;;;;5067197;28;20016;-59
2022/06/13 02:10:01;;;;;;;6.40;3.38;;;13.70;95.70;;;;;;5068710;28;20074;-59
2022/06/13 02:12:31;;;;;;;4.55;3.10;;;13.80;95.60;;;;;;5068136;28;20518;-60
2022/06/13 02:15:06;;;;;;;5.40;3.45;;;13.90;95.50;;;;;;5067179;28;20098;-60
2022/06/13 02:17:39;;;;;;;5.15;3.47;;;13.90;95.40;;;;;;5069929;28;20016;-60
2022/06/13 02:20:20;;;;;;;9.73;4.88;;;13.90;95.40;;;;;;5065166;28;20480;-60
2022/06/13 02:22:59;;;;;;;8.75;4.60;;;13.90;95.60;;;;;;5068055;28;20028;-60
2022/06/13 02:26:05;;;;;;;8.80;4.20;;;13.90;95.70;;;;;;5068525;28;20029;-60
2022/06/13 02:28:43;;;;;;;6.43;3.13;;;13.90;95.70;;;;;;5023935;28;20064;-60
2022/06/13 02:31:19;;;;;;;7.25;4.50;;;13.90;95.90;;;;;;5061101;28;20040;-60
2022/06/13 02:34:03;;;;;;;8.80;3.95;;;13.90;95.90;;;;;;5068137;28;20028;-60
2022/06/13 02:36:41;;;;;;;8.98;4.43;;;13.90;95.90;;;;;;5065525;28;20021;-60
2022/06/13 02:39:40;;;;;;;10.40;5.07;;;13.90;95.90;;;;;;5069032;28;20384;-60
2022/06/13 02:42:14;;;;;;;7.95;4.65;;;13.90;96.10;;;;;;5059798;28;20033;-61
2022/06/13 02:44:45;;;;;;;6.65;3.88;;;13.90;96.30;;;;;;5069099;28;20070;-60
2022/06/13 02:47:27;;;;;;;12.32;4.95;;;13.90;96.30;;;;;;5068062;28;20032;-60
2022/06/13 02:50:01;;;;;;;7.22;4.15;;;13.90;96.40;;;;;;5082124;28;20032;-60
2022/06/13 02:52:51;;;;;;;5.25;3.97;;;13.90;96.50;;;;;;5066448;28;20021;-60
2022/06/13 02:55:17;;;;;;;;;;;13.90;96.50;;;;;;5058700;28;20052;-60
2022/06/13 02:58:05;;;;;;;4.05;2.72;;;13.90;96.40;;;;;;5068239;28;19973;-60
2022/06/13 03:00:49;;;;;;;5.57;2.83;;;13.90;96.40;;;;;;5067017;28;20123;-60
2022/06/13 03:04:00;;;;;;;5.40;3.38;;;13.90;96.40;;;;;;5066570;28;20024;-60
2022/06/13 03:06:52;;;;;;;5.72;2.75;;;13.90;96.30;;;;;;4985642;28;20121;-60
2022/06/13 03:09:27;;;;;;;4.25;2.83;;;13.90;96.30;;;;;;5004297;28;20399;-60
2022/06/13 03:12:09;;;;;;;6.40;3.22;;;13.90;96.30;;;;;;5047091;28;20044;-60
2022/06/13 03:14:41;;;;;;;4.05;2.70;;;13.90;96.30;;;;;;5066135;28;20032;-60
2022/06/13 03:17:53;;;;;;;4.68;3.35;;;13.90;96.40;;;;;;5066581;28;20020;-60
2022/06/13 03:20:29;;;;;;;5.72;3.30;;;14.00;96.30;;;;;;5065913;28;20067;-60
2022/06/13 03:23:12;;;;;;;4.20;2.95;;;13.90;96.40;;;;;;5066769;28;20017;-60
2022/06/13 03:25:47;;;;;;;5.70;2.85;;;13.90;96.40;;;;;;5065629;28;20030;-60
2022/06/13 03:28:28;;;;;;;5.55;3.20;;;13.90;96.40;;;;;;5071348;28;20036;-60
2022/06/13 03:31:03;;;;;;;4.38;3.05;;;13.90;96.20;;;;;;5066612;28;20039;-60
2022/06/13 03:33:42;;;;;;;4.25;2.67;;;13.90;96.30;;;;;;5064935;28;20021;-60
2022/06/13 03:36:17;;;;;;;5.97;3.13;;;13.90;96.30;;;;;;5067068;28;20392;-60
2022/06/13 03:38:49;;;;;;;4.90;3.03;;;13.90;96.30;;;;;;5079187;28;20264;-60
2022/06/13 03:41:17;;;;;;;5.78;2.63;;;13.90;96.40;;;;;;5065727;28;20039;-60
2022/06/13 03:43:47;;;;;;;5.88;3.33;;;14.00;96.30;;;;;;5064065;28;20103;-60
2022/06/13 03:46:41;;;;;;;5.35;3.25;;;14.00;96.30;;;;;;5066838;28;20120;-60
2022/06/13 03:49:16;;;;;;;5.75;2.65;;;14.00;96.30;;;;;;5066575;28;20067;-60
2022/06/13 03:51:47;;;;;;;5.05;3.00;;;14.00;96.40;;;;;;5064082;28;20031;-60
2022/06/13 03:54:23;;;;;;;6.95;4.03;;;14.00;96.40;;;;;;5065951;28;20257;-60
2022/06/13 03:56:56;;;;;;;5.00;3.30;;;14.00;96.40;;;;;;5065959;28;20032;-60
2022/06/13 03:59:39;;;;;;;6.70;3.25;;;14.10;96.30;;;;;;5065721;28;20033;-60
2022/06/13 04:02:11;;;;;;;6.78;3.40;;;14.10;96.30;;;;;;5062674;28;20024;-60
2022/06/13 04:04:41;;;;;;;7.30;3.33;;;14.10;96.30;;;;;;5079637;28;20467;-60
2022/06/13 04:07:06;;;;;;;7.40;3.22;;;14.20;96.40;;;;;;5066802;28;20055;-60
2022/06/13 04:09:39;;;;;;;6.30;2.97;;;14.20;96.50;;;;;;5071963;28;20056;-60
2022/06/13 04:12:40;;;;;;;10.77;3.90;;;14.20;96.50;;;;;;5064441;28;20028;-60
2022/06/13 04:15:37;;;;;;;5.68;3.88;;;14.30;96.60;;;;;;5062757;28;20484;-60
2022/06/13 04:18:13;;;;;;;6.18;3.28;;;14.30;96.60;;;;;;5064364;28;20037;-60
2022/06/13 04:21:05;;;;;;;8.63;3.83;;;14.30;96.80;;;;;;5065704;28;20051;-60
2022/06/13 04:23:47;;;;;;;6.15;3.25;;;14.30;96.90;;;;;;5066458;28;20480;-60
2022/06/13 04:26:34;;;;;;;6.53;4.05;;;14.40;97.00;;;;;;5065713;28;20439;-60
2022/06/13 04:29:13;;;;;;;7.30;3.45;;;14.40;97.10;;;;;;5064087;28;20050;-60
2022/06/13 04:31:40;;;;;;;7.18;3.38;;;14.40;97.10;;;;;;5065039;28;20116;-60
2022/06/13 04:34:16;;;;;;;5.78;3.30;;;14.40;97.20;;;;;;5067308;28;20032;-60
2022/06/13 04:36:43;;;;;;;7.95;3.88;;;14.50;97.20;;;;;;5060690;28;20031;-60
2022/06/13 04:39:13;;;;;;;6.63;3.75;;;14.50;97.30;;;;;;5056351;28;20021;-60
2022/06/13 04:41:43;;;;;;;8.20;3.53;;;14.50;97.30;;;;;;5059550;28;20109;-60
2022/06/13 04:44:15;;;;;;;6.25;3.50;;;14.50;97.40;;;;;;5082139;28;20017;-60
2022/06/13 04:46:42;;;;;;;5.60;3.47;;;14.50;97.40;;;;;;5061771;28;20016;-60
2022/06/13 04:49:30;;;;;;;8.00;3.35;;;14.50;97.40;;;;;;5061855;28;20041;-60
2022/06/13 04:51:59;;;;;;;7.97;4.05;;;14.60;97.50;;;;;;5071045;28;20029;-60
2022/06/13 04:54:39;;;;;;;8.20;3.88;;;14.60;97.70;;;;;;5067762;28;20049;-60
2022/06/13 04:57:05;;;;;;;8.98;3.50;;;14.70;97.70;;;;;;5056311;28;20116;-60
2022/06/13 04:59:31;;;;;;;7.07;3.78;;;14.70;97.80;;;;;;5057171;28;20092;-60
2022/06/13 05:01:58;;;;;;;5.03;2.95;;;14.70;97.90;;;;;;5056343;28;20028;-60
2022/06/13 05:04:30;;;;;;;11.75;3.80;;;14.80;97.90;;;;;;5056585;28;20021;-60
2022/06/13 05:07:06;;;;;;;8.48;3.90;;;14.80;98.00;;;;;;5063836;28;20032;-60
2022/06/13 05:09:36;;;;;;;6.93;3.47;;;14.80;98.00;;;;;;5069473;28;20028;-60
2022/06/13 05:12:17;;;;;;;;;;;14.90;98.00;;;;;;5068001;28;20111;-60
2022/06/13 05:14:59;;;;;;;6.20;3.20;;;14.90;98.00;;;;;;5062509;28;19913;-60
2022/06/13 05:17:52;;;;;;;8.40;4.15;;;14.90;98.10;;;;;;5060004;28;20025;-60
2022/06/13 05:20:39;;;;;;;9.23;5.05;;;15.00;98.20;;;;;;5064510;28;20414;-60
2022/06/13 05:23:16;;;;;;;6.03;4.63;;;15.00;98.30;;;;;;5055350;28;20461;-60
2022/06/13 05:25:47;;;;;;;7.40;4.10;;;15.10;98.40;;;;;;5058646;28;20032;-60
2022/06/13 05:28:19;;;;;;;9.38;4.65;;;15.10;98.40;;;;;;5071206;28;20112;-60
2022/06/13 05:30:48;;;;;;;9.70;4.47;;;15.20;98.40;;;;;;5071383;28;20392;-60
2022/06/13 05:33:16;;;;;;;11.35;5.35;;;15.30;98.40;;;;;;5071994;28;20048;-60
2022/06/13 05:35:46;;;;;;;11.35;5.55;;;15.40;98.40;;;;;;5077111;28;20380;-60
2022/06/13 05:38:17;;;;;;;11.52;4.60;;;15.50;98.40;;;;;;5093169;28;20052;-60
2022/06/13 05:40:43;;;;;;;7.50;5.05;;;15.60;98.30;;;;;;5062126;28;20017;-60
2022/06/13 05:43:10;;;;;;;10.68;5.07;;;15.60;98.30;;;;;;5065199;28;20103;-60
2022/06/13 05:45:38;;;;;;;9.65;5.18;;;15.70;98.30;;;;;;5062925;28;20389;-60
2022/06/13 05:48:04;;;;;;;10.77;4.63;;;15.70;98.30;;;;;;5063991;28;20021;-60
2022/06/13 05:50:32;;;;;;;9.82;5.00;;;15.80;98.30;;;;;;5063678;28;20027;-60
2022/06/13 05:52:57;;;;;;;8.55;4.72;;;15.90;98.30;;;;;;5063921;28;20032;-60
2022/06/13 05:55:23;;;;;;;10.88;4.40;;;15.90;98.30;;;;;;5083037;28;20037;-60
2022/06/13 05:57:49;;;;;;;10.65;5.13;;;15.90;98.30;;;;;;5062544;28;20025;-60
2022/06/13 06:00:19;;;;;;;14.68;5.57;;;16.00;98.30;;;;;;5072633;28;20141;-60
2022/06/13 06:02:45;;;;;;;13.60;5.50;;;16.10;98.20;;;;;;5074695;28;20023;-60
2022/06/13 06:05:10;;;;;;;8.23;4.63;;;16.20;98.20;;;;;;5068123;28;20064;-60
2022/06/13 06:07:40;;;;;;;9.25;5.30;;;16.30;98.10;;;;;;5073020;28;20070;-60
2022/06/13 06:10:06;;;;;;;11.10;4.40;;;16.40;97.90;;;;;;5069682;28;20025;-60
2022/06/13 06:12:32;;;;;;;10.48;4.45;;;16.40;97.80;;;;;;5063073;28;20028;-60
2022/06/13 06:14:58;;;;;;;9.27;5.15;;;16.50;97.70;;;;;;5069250;28;20028;-60
2022/06/13 06:17:23;;;;;;;10.30;4.18;;;16.50;97.60;;;;;;5069725;28;20031;-60
2022/06/13 06:19:49;;;;;;;12.18;5.00;;;16.50;97.40;;;;;;5054331;28;20358;-60
2022/06/13 06:22:14;;;;;;;13.27;4.93;;;16.50;97.60;;;;;;5056871;28;20612;-60
2022/06/13 06:24:40;;;;;;;13.13;4.43;;;16.40;97.10;;;;;;5073523;28;20025;-60
2022/06/13 06:27:08;;;;;;;8.73;3.90;;;16.50;96.90;;;;;;5057115;28;20451;-60
2022/06/13 06:29:34;;;;;;;9.75;3.95;;;16.50;96.70;;;;;;5054028;28;20021;-60
2022/06/13 06:31:59;;;;;;;8.05;3.70;;;16.50;96.50;;;;;;5066831;28;20032;-60
2022/06/13 06:34:25;;;;;;;9.90;3.80;;;16.60;96.40;;;;;;5053555;28;20032;-60
2022/06/13 06:36:50;;;;;;;6.95;3.28;;;16.70;96.20;;;;;;5078014;28;20539;-60
2022/06/13 06:39:16;;;;;;;9.55;3.35;;;16.70;96.00;;;;;;5094465;28;20064;-60
2022/06/13 06:41:42;;;;;;;7.88;3.00;;;16.80;95.70;;;;;;5061994;28;20103;-60
2022/06/13 06:44:08;;;;;;;7.93;4.10;;;16.80;95.40;;;;;;5062199;28;20456;-60
2022/06/13 06:46:33;;;;;;;5.80;3.10;;;16.80;95.00;;;;;;5068565;28;20057;-60
2022/06/13 06:48:59;;;;;;;7.43;3.22;;;16.90;94.60;;;;;;5061404;28;20028;-60
2022/06/13 06:51:29;;;;;;;7.90;2.85;;;16.90;94.30;;;;;;5063546;28;20021;-60
2022/06/13 07:02:08;;;;;;;4.88;1.65;;;17.10;91.40;;;;;;5072391;28;20085;-60
2022/06/13 07:04:33;;;;;;;5.28;1.52;;;17.10;90.70;;;;;;5071162;28;20020;-60
2022/06/13 07:06:59;;;;;;;5.25;1.27;;;17.10;90.40;;;;;;5068884;28;20024;-59
2022/06/13 07:09:24;;;;;;;4.53;1.17;;;17.20;89.70;;;;;;5071921;28;20070;-59
2022/06/13 07:11:56;;;;;;;4.50;1.17;;;17.20;89.10;;;;;;5072661;28;20029;-59
2022/06/13 07:14:27;;;;;;;6.68;1.70;;;17.30;88.30;;;;;;5066664;28;20028;-59
2022/06/13 07:16:54;;;;;;;2.92;0.85;;;17.30;87.40;;;;;;5065769;28;20415;-59
2022/06/13 07:19:19;;;;;;;4.03;1.20;;;17.40;87.00;;;;;;5053254;28;20100;-59
2022/06/13 07:21:45;;;;;;;3.22;1.00;;;17.40;86.70;;;;;;5053019;28;20491;-59
2022/06/13 07:24:11;;;;;;;2.72;0.90;;;17.40;86.30;;;;;;5057961;28;20479;-59
2022/06/13 07:26:38;;;;;;;4.00;1.00;;;17.50;86.20;;;;;;5072343;28;20025;-60
2022/06/13 07:29:04;;;;;;;4.35;0.98;;;17.50;85.80;;;;;;5053477;28;20025;-60
2022/06/13 07:31:36;;;;;;;3.85;1.10;;;17.50;86.00;;;;;;5068139;28;20491;-60
2022/06/13 07:34:01;;;;;;;4.25;1.08;;;17.60;84.80;;;;;;5050978;28;20465;-60
2022/06/13 07:36:27;;;;;;;5.75;1.25;;;17.70;83.80;;;;;;5052351;28;20029;-60
2022/06/13 07:38:53;;;;;;;5.13;1.33;;;17.70;83.00;;;;;;5050476;28;20040;-60
2022/06/13 07:41:21;;;;;;;7.30;1.85;;;17.80;82.60;;;;;;5068046;28;20029;-60
2022/06/13 07:43:49;;;;;;;6.47;1.60;;;17.90;82.00;;;;;;5072414;28;20016;-60
2022/06/13 07:46:14;;;;;;;4.93;0.70;;;17.90;81.80;;;;;;5071999;28;20021;-60
2022/06/13 07:48:40;;;;;;;4.85;1.10;;;18.10;81.70;;;;;;5064160;28;20078;-60
2022/06/13 07:51:06;;;;;;;3.53;0.95;;;18.20;80.80;;;;;;5052284;28;20020;-60
2022/06/13 07:53:33;;;;;;;4.15;1.10;;;18.30;79.70;;;;;;5052421;28;20041;-60
2022/06/13 07:55:59;;;;;;;4.72;1.10;;;18.40;78.60;;;;;;5097885;28;20056;-60
2022/06/13 07:58:34;;;;;;;5.05;0.98;;;18.40;78.00;;;;;;5069419;28;20496;-60
2022/06/13 08:01:00;;;;;;;4.38;1.00;;;18.50;78.10;;;;;;5056307;28;20484;-60
2022/06/13 08:03:29;;;;;;;4.07;1.10;;;18.60;77.20;;;;;;5052905;28;20032;-60
2022/06/13 08:05:56;;;;;;;3.67;1.40;;;18.70;77.20;;;;;;5053280;28;20092;-60
2022/06/13 08:08:21;;;;;;;3.50;0.88;;;18.70;76.80;;;;;;5070118;28;20029;-60
2022/06/13 08:10:51;;;;;;;5.53;0.90;;;18.80;76.50;;;;;;5067947;28;20021;-60
2022/06/13 08:13:19;;;;;;;3.60;1.20;;;18.80;75.40;;;;;;5069281;28;20028;-60
2022/06/13 08:15:44;;;;;;;3.10;1.00;;;18.70;75.10;;;;;;5059229;28;20021;-60
2022/06/13 08:18:13;;;;;;;6.07;1.10;;;18.70;75.60;;;;;;5062658;28;20028;-60
2022/06/13 08:20:39;;;;;;;5.22;0.80;;;18.60;75.60;;;;;;5053748;28;20039;-60
2022/06/13 08:23:08;;;;;;;4.57;0.95;;;18.60;76.40;;;;;;5052336;28;20071;-60
2022/06/13 08:25:36;;;;;;;6.33;1.20;;;18.60;76.50;;;;;;5065081;28;20016;-60
2022/06/13 08:28:04;;;;;;;6.55;0.98;;;18.60;76.70;;;;;;5052002;28;20100;-60
2022/06/13 08:30:45;;;;;;;1.92;0.63;;;18.70;76.70;;;;;;5052273;28;20448;-60
2022/06/13 08:33:11;;;;;;;3.45;0.60;;;18.70;76.20;;;;;;5052620;28;20032;-60
2022/06/13 08:35:37;;;;;;;2.42;0.50;;;18.70;74.90;;;;;;5052324;28;20028;-60
2022/06/13 08:38:03;;;;;;;2.67;0.50;;;18.70;73.60;;;;;;5051909;28;20062;-60
2022/06/13 08:40:45;;;;;;;4.20;0.60;;;18.70;73.60;;;;;;5052466;28;20025;-60
2022/06/13 08:43:25;;;;;;;2.20;0.40;;;18.70;71.90;;;;;;5053317;28;20055;-61
2022/06/13 08:46:05;;;;;;;2.65;0.47;;;18.70;71.20;;;;;;5064018;28;20025;-60
2022/06/13 08:48:39;;;;;;;;;;;18.70;71.20;;;;;;5053066;28;20064;-60
2022/06/13 08:51:11;;;;;;;1.48;0.32;;;18.60;71.40;;;;;;5057049;28;19905;-60
2022/06/13 08:53:58;;;;;;;2.40;0.40;;;18.70;71.00;;;;;;5065148;28;20048;-60
2022/06/13 08:56:34;;;;;;;1.70;0.40;;;18.80;70.20;;;;;;5074790;28;20488;-60
2022/06/13 08:59:22;;;;;;;2.70;0.40;;;18.80;69.00;;;;;;5062281;28;20021;-60
2022/06/13 09:02:04;;;;;;;3.45;0.70;;;18.90;68.70;;;;;;5056140;28;20047;-60
2022/06/13 09:04:44;;;;;;;2.42;0.50;;;18.90;69.50;;;;;;5056645;28;20025;-60
2022/06/13 09:07:27;;;;;;;2.08;0.35;;;18.90;69.70;;;;;;5065712;28;20047;-60
2022/06/13 09:09:56;;;;;;;3.70;0.50;;;18.90;69.50;;;;;;5055249;28;20211;-60
2022/06/13 09:12:27;;;;;;;1.65;0.43;;;18.90;69.60;;;;;;5070565;28;20024;-61
2022/06/13 09:15:13;;;;;;;1.48;0.30;;;19.00;69.90;;;;;;5064971;28;20033;-60
2022/06/13 09:18:01;;;;;;;4.93;0.60;;;19.00;69.50;;;;;;5055351;28;20385;-60
2022/06/13 09:20:53;;;;;;;4.97;0.53;;;19.00;69.80;;;;;;5070850;28;20485;-60
2022/06/13 09:23:45;;;;;;;4.53;0.40;;;19.10;70.00;;;;;;5055246;28;20504;-60
2022/06/13 09:26:14;;;;;;;1.83;0.50;;;19.10;67.50;;;;;;5079313;28;20035;-60
2022/06/13 09:28:57;;;;;;;4.60;0.73;;;19.20;67.60;;;;;;5073739;28;20163;-60
2022/06/13 09:31:32;;;;;;;1.80;0.40;;;19.20;67.70;;;;;;5074109;28;20107;-60
2022/06/13 09:34:08;;;;;;;1.77;0.40;;;19.20;67.60;;;;;;5073363;28;20042;-60
2022/06/13 09:36:39;;;;;;;2.42;0.30;;;19.20;67.40;;;;;;5073413;28;20029;-60
2022/06/13 09:39:07;;;;;;;2.10;0.40;;;19.30;66.70;;;;;;5074724;28;20017;-60
2022/06/13 09:41:33;;;;;;;1.30;0.30;;;19.30;65.30;;;;;;5072047;28;20048;-60
2022/06/13 09:44:39;;;;;;;2.40;0.32;;;19.30;65.70;;;;;;5073651;28;20052;-60
2022/06/13 09:47:30;;;;;;;1.60;0.30;;;19.50;65.70;;;;;;5074578;28;20025;-60
2022/06/13 09:50:16;;;;;;;2.03;0.73;;;19.60;65.00;;;;;;5071591;28;20025;-60
2022/06/13 09:53:11;;;;;;;2.78;0.55;;;19.60;64.70;;;;;;5072732;28;20484;-60
2022/06/13 09:56:18;;;;;;;2.15;0.70;;;19.60;64.60;;;;;;5058066;28;20123;-60
2022/06/13 09:59:03;;;;;;;3.40;0.98;;;19.60;63.90;;;;;;5064709;28;20036;-60
2022/06/13 10:01:50;;;;;;;3.25;0.60;;;19.50;64.10;;;;;;5072792;28;20027;-60
2022/06/13 10:04:39;;;;;;;2.05;0.50;;;19.50;64.40;;;;;;5070062;28;20100;-60
2022/06/13 10:07:19;;;;;;;3.00;0.40;;;19.60;64.90;;;;;;5068589;28;20349;-60
2022/06/13 10:09:59;;;;;;;2.63;0.40;;;19.60;65.20;;;;;;5064741;28;20480;-60
2022/06/13 10:12:54;;;;;;;2.20;0.40;;;19.60;65.90;;;;;;5063200;28;20037;-60
2022/06/13 10:16:04;;;;;;;2.95;0.40;;;19.60;65.90;;;;;;5062365;28;20017;-60
2022/06/13 10:18:41;;;;;;;2.40;0.50;;;19.60;66.20;;;;;;5031652;28;20088;-60
2022/06/13 10:21:21;;;;;;;3.50;0.40;;;19.60;66.70;;;;;;5063688;28;20029;-60
2022/06/13 10:23:51;;;;;;;2.58;0.40;;;19.80;66.20;;;;;;5070156;28;20059;-61
2022/06/13 10:26:33;;;;;;;1.15;0.40;;;19.90;65.90;;;;;;5067993;28;20108;-60
2022/06/13 10:29:20;;;;;;;3.53;0.70;;;20.00;65.40;;;;;;5059360;28;20021;-60
2022/06/13 10:32:27;;;;;;;1.35;0.40;;;20.10;63.80;;;;;;5064225;28;20068;-60
2022/06/13 10:35:08;;;;;;;1.98;0.40;;;20.20;63.20;;;;;;5054824;28;20500;-61
2022/06/13 10:37:36;;;;;;;1.85;0.30;;;20.40;63.30;;;;;;5066178;28;20111;-60
2022/06/13 10:40:07;;;;;;;1.60;0.28;;;20.50;62.70;;;;;;5056232;28;20071;-60
2022/06/13 10:42:35;;;;;;;1.25;0.30;;;20.50;62.40;;;;;;5066560;28;20023;-61
2022/06/13 10:45:05;;;;;;;1.65;0.30;;;20.40;62.70;;;;;;5055243;28;20013;-60
2022/06/13 10:47:54;;;;;;;1.60;0.30;;;20.40;63.10;;;;;;5060465;28;20066;-61
2022/06/13 10:50:31;;;;;;;2.97;0.50;;;20.60;63.60;;;;;;5061329;28;20017;-60
2022/06/13 10:53:07;;;;;;;4.03;0.73;;;20.60;62.10;;;;;;5060413;28;20048;-60
2022/06/13 10:55:40;;;;;;;3.10;0.43;;;20.60;61.70;;;;;;5068192;28;20552;-61
2022/06/13 10:58:24;;;;;;;2.50;0.60;;;20.60;61.80;;;;;;5058755;28;20478;-60
2022/06/13 11:01:15;;;;;;;3.05;0.55;;;20.70;61.40;;;;;;5063540;28;20582;-60
2022/06/13 11:04:09;;;;;;;3.72;0.70;;;20.70;61.40;;;;;;5061400;28;20031;-61
2022/06/13 11:06:46;;;;;;;3.95;0.65;;;20.70;61.50;;;;;;5062073;28;20081;-61
2022/06/13 11:09:39;;;;;;;1.40;0.30;;;20.70;61.10;;;;;;5066701;28;20025;-61
2022/06/13 11:12:20;;;;;;;2.53;0.77;;;20.80;61.00;;;;;;5056427;28;20100;-61
2022/06/13 11:23:46;;;;;;;3.05;0.57;;;21.00;58.50;;;;;;5065816;28;20130;-60
2022/06/13 11:29:06;;;;;;;3.05;0.40;;;21.00;57.70;;;;;;5055578;28;20035;-61
2022/06/13 11:31:32;;;;;;;3.10;0.50;;;21.10;57.50;;;;;;5072616;28;20088;-60
2022/06/13 11:34:27;;;;;;;1.75;0.60;;;21.30;57.50;;;;;;5061787;28;20028;-60
2022/06/13 11:37:13;;;;;;;4.70;0.85;;;21.30;57.90;;;;;;5055609;28;20056;-60
2022/06/13 11:39:41;;;;;;;2.30;0.60;;;21.30;57.60;;;;;;5063306;28;20440;-60
2022/06/13 11:42:39;;;;;;;2.83;0.50;;;21.20;58.10;;;;;;5065027;28;20494;-61
2022/06/13 11:45:19;;;;;;;3.42;0.40;;;21.20;58.10;;;;;;5045407;28;20025;-60
2022/06/13 11:47:45;;;;;;;;;;;21.30;58.10;;;;;;5068685;28;20539;-61
2022/06/13 11:50:25;;;;;;;1.73;0.40;;;21.30;57.60;;;;;;5062642;28;20376;-60
2022/06/13 11:55:50;;;;;;;2.10;0.38;;;21.50;56.50;;;;;;5061340;28;20450;-60
2022/06/13 11:58:30;;;;;;;2.60;0.32;;;21.70;56.40;;;;;;5065317;28;20021;-60
2022/06/13 12:01:22;;;;;;;1.75;0.40;;;21.80;55.90;;;;;;5067066;28;20052;-61
2022/06/13 12:04:10;;;;;;;2.97;0.50;;;21.80;55.70;;;;;;5052145;28;20021;-60
2022/06/13 12:06:43;;;;;;;2.07;0.37;;;21.90;56.20;;;;;;5058310;28;20033;-61
2022/06/13 12:09:34;;;;;;;2.05;0.30;;;21.90;56.10;;;;;;5070441;28;20499;-60
2022/06/13 12:12:08;;;;;;;2.53;0.40;;;22.00;55.60;;;;;;5070543;28;20036;-60
2022/06/13 12:14:38;;;;;;;3.00;0.40;;;22.00;55.80;;;;;;5058960;28;20040;-60
2022/06/13 12:17:07;;;;;;;2.35;0.43;;;22.00;55.80;;;;;;5057578;28;20108;-61
2022/06/13 12:19:41;;;;;;;1.75;0.45;;;22.00;55.60;;;;;;5052461;28;20014;-61
2022/06/13 12:22:20;;;;;;;1.98;0.40;;;22.10;55.40;;;;;;5053003;28;20025;-60
2022/06/13 12:25:16;;;;;;;3.17;0.40;;;22.20;53.80;;;;;;5063989;28;20021;-60
2022/06/13 12:27:49;;;;;;;1.75;0.28;;;22.30;54.10;;;;;;5064127;28;20028;-61
2022/06/13 12:30:32;;;;;;;2.08;0.40;;;22.30;54.00;;;;;;5075358;28;20024;-61
2022/06/13 12:33:10;;;;;;;1.42;0.40;;;22.40;52.10;;;;;;5076009;28;20439;-61
2022/06/13 12:35:58;;;;;;;2.13;0.52;;;22.40;51.60;;;;;;5074912;28;20029;-60
2022/06/13 12:38:49;;;;;;;3.03;0.35;;;22.40;51.90;;;;;;5055828;28;20380;-61
2022/06/13 12:41:25;;;;;;;1.67;0.45;;;22.40;52.30;;;;;;5056001;28;20025;-61
2022/06/13 12:43:59;;;;;;;2.22;0.40;;;22.40;52.60;;;;;;5056083;28;20025;-61
2022/06/13 12:46:34;;;;;;;1.90;0.40;;;22.50;52.40;;;;;;5074771;28;20028;-60
2022/06/13 12:49:03;;;;;;;3.00;0.60;;;22.60;52.70;;;;;;5073193;28;20056;-61
2022/06/13 12:51:51;;;;;;;3.03;0.43;;;22.70;51.90;;;;;;5064688;28;20477;-61
2022/06/13 12:54:17;;;;;;;6.10;0.40;;;22.80;50.70;;;;;;5063572;28;20057;-61
2022/06/13 12:56:52;;;;;;;1.95;0.30;;;22.80;49.80;;;;;;5057627;28;20473;-61
2022/06/13 12:59:38;;;;;;;0.90;0.30;;;23.00;50.50;;;;;;5070224;28;20017;-61
2022/06/13 13:02:22;;;;;;;1.50;0.30;;;23.10;49.90;;;;;;5067446;28;20027;-61
2022/06/13 13:05:10;;;;;;;0.85;0.30;;;23.10;48.90;;;;;;5072808;28;20476;-61
2022/06/13 13:07:52;;;;;;;2.15;0.40;;;23.20;49.10;;;;;;5064639;28;20059;-61
2022/06/13 13:10:58;;;;;;;1.80;0.45;;;23.30;49.30;;;;;;5057183;28;20021;-61
2022/06/13 13:13:33;;;;;;;3.53;0.40;;;23.40;49.30;;;;;;5062700;28;20119;-61
2022/06/13 13:16:13;;;;;;;1.55;0.40;;;23.40;49.20;;;;;;5063067;28;20020;-61
2022/06/13 13:19:04;;;;;;;1.83;0.40;;;23.50;49.40;;;;;;5067670;28;20048;-61
2022/06/13 13:21:37;;;;;;;2.05;0.40;;;23.40;49.10;;;;;;5064937;28;20035;-61
2022/06/13 13:24:22;;;;;;;1.67;0.50;;;23.50;49.50;;;;;;5064422;28;20049;-61
2022/06/13 13:27:01;;;;;;;2.13;0.40;;;23.50;49.30;;;;;;5062088;28;20393;-61
2022/06/13 13:29:26;;;;;;;;;;;23.40;49.90;;;;;;5064891;28;20497;-61
2022/06/13 13:32:31;;;;;;;2.10;0.40;;;23.60;49.20;;;;;;5056768;28;20045;-61
2022/06/13 13:35:21;;;;;;;4.30;0.40;;;23.70;48.70;;;;;;5054833;28;20062;-61
2022/06/13 13:37:54;;;;;;;1.88;0.63;;;23.80;47.50;;;;;;5067370;28;20056;-61
2022/06/13 13:40:43;;;;;;;1.52;0.40;;;23.90;48.10;;;;;;5061915;28;20024;-61
2022/06/13 13:43:35;;;;;;;1.45;0.40;;;24.00;48.20;;;;;;5058560;28;20544;-61
2022/06/13 13:46:11;;;;;;;2.15;0.40;;;24.20;47.50;;;;;;5039274;28;20102;-61
2022/06/13 13:49:22;;;;;;;2.83;0.57;;;24.30;47.70;;;;;;5059559;28;20054;-61
2022/06/13 13:51:53;;;;;;;4.57;0.50;;;24.40;47.70;;;;;;5041903;28;20041;-61
2022/06/13 13:54:21;;;;;;;2.50;0.50;;;24.20;48.50;;;;;;5061318;28;20040;-61
2022/06/13 13:56:57;;;;;;;2.58;0.38;;;24.20;48.60;;;;;;5058683;28;21015;-61
2022/06/13 13:59:27;;;;;;;2.50;0.60;;;24.30;48.60;;;;;;5058249;28;20403;-61